sensor_id;sensor_type;location;lat;lon;timestamp;P1;durP1;ratioP1;P2;durP2;ratioP2
46355;SDS011;32066;49.474;11.106;2023-09-12T00:02:06;18.98;;;14.75;;
46355;SDS011;32066;49.474;11.106;2023-09-12T00:04:38;20.27;;;14.93;;
46355;SDS011;32066;49.474;11.106;2023-09-12T00:07:06;17.23;;;14.40;;
46355;SDS011;32066;49.474;11.106;2023-09-12T00:09:35;20.13;;;14.30;;
46355;SDS011;32066;49.474;11.106;2023-09-12T00:12:04;19.67;;;14.45;;
46355;SDS011;32066;49.474;11.106;2023-09-12T00:14:33;19.58;;;14.50;;
46355;SDS011;32066;49.474;11.106;2023-09-12T00:17:02;16.85;;;14.70;;
46355;SDS011;32066;49.474;11.106;2023-09-12T00:19:31;17.65;;;14.45;;
46355;SDS011;32066;49.474;11.106;2023-09-12T00:22:03;18.67;;;14.23;;
46355;SDS011;32066;49.474;11.106;2023-09-12T00:24:31;21.58;;;14.07;;
46355;SDS011;32066;49.474;11.106;2023-09-12T00:27:00;17.90;;;14.77;;
46355;SDS011;32066;49.474;11.106;2023-09-12T00:29:30;17.00;;;14.48;;
46355;SDS011;32066;49.474;11.106;2023-09-12T00:31:58;18.17;;;15.07;;
46355;SDS011;32066;49.474;11.106;2023-09-12T00:34:28;23.00;;;14.90;;
46355;SDS011;32066;49.474;11.106;2023-09-12T00:36:57;17.80;;;14.38;;
46355;SDS011;32066;49.474;11.106;2023-09-12T00:39:28;16.67;;;14.80;;
46355;SDS011;32066;49.474;11.106;2023-09-12T00:41:57;20.08;;;14.65;;
46355;SDS011;32066;49.474;11.106;2023-09-12T00:44:26;17.05;;;14.40;;
46355;SDS011;32066;49.474;11.106;2023-09-12T00:46:54;19.00;;;14.38;;
46355;SDS011;32066;49.474;11.106;2023-09-12T00:49:23;17.40;;;14.55;;
46355;SDS011;32066;49.474;11.106;2023-09-12T00:51:53;19.00;;;14.43;;
46355;SDS011;32066;49.474;11.106;2023-09-12T00:54:24;18.80;;;14.70;;
46355;SDS011;32066;49.474;11.106;2023-09-12T00:56:56;17.65;;;15.30;;
46355;SDS011;32066;49.474;11.106;2023-09-12T00:59:24;16.92;;;14.32;;
46355;SDS011;32066;49.474;11.106;2023-09-12T01:01:53;15.70;;;14.00;;
46355;SDS011;32066;49.474;11.106;2023-09-12T01:04:22;19.40;;;14.43;;
46355;SDS011;32066;49.474;11.106;2023-09-12T01:06:51;17.90;;;14.38;;
46355;SDS011;32066;49.474;11.106;2023-09-12T01:09:20;18.75;;;15.20;;
46355;SDS011;32066;49.474;11.106;2023-09-12T01:11:49;17.52;;;14.73;;
46355;SDS011;32066;49.474;11.106;2023-09-12T01:14:20;17.95;;;15.10;;
46355;SDS011;32066;49.474;11.106;2023-09-12T01:16:49;16.60;;;14.90;;
46355;SDS011;32066;49.474;11.106;2023-09-12T01:19:18;17.88;;;14.05;;
46355;SDS011;32066;49.474;11.106;2023-09-12T01:22:00;16.48;;;13.82;;
46355;SDS011;32066;49.474;11.106;2023-09-12T01:27:38;16.95;;;14.68;;
46355;SDS011;32066;49.474;11.106;2023-09-12T01:30:09;16.70;;;13.90;;
46355;SDS011;32066;49.474;11.106;2023-09-12T01:32:38;18.33;;;14.13;;
46355;SDS011;32066;49.474;11.106;2023-09-12T01:35:08;18.35;;;14.18;;
46355;SDS011;32066;49.474;11.106;2023-09-12T01:37:36;17.85;;;13.98;;
46355;SDS011;32066;49.474;11.106;2023-09-12T01:40:05;21.50;;;14.68;;
46355;SDS011;32066;49.474;11.106;2023-09-12T01:42:40;19.13;;;14.10;;
46355;SDS011;32066;49.474;11.106;2023-09-12T01:45:13;20.27;;;15.27;;
46355;SDS011;32066;49.474;11.106;2023-09-12T01:47:44;19.50;;;14.07;;
46355;SDS011;32066;49.474;11.106;2023-09-12T01:50:14;18.65;;;14.45;;
46355;SDS011;32066;49.474;11.106;2023-09-12T01:52:43;18.73;;;15.25;;
46355;SDS011;32066;49.474;11.106;2023-09-12T01:55:13;18.75;;;14.20;;
46355;SDS011;32066;49.474;11.106;2023-09-12T01:57:45;16.17;;;13.68;;
46355;SDS011;32066;49.474;11.106;2023-09-12T02:00:14;16.65;;;13.48;;
46355;SDS011;32066;49.474;11.106;2023-09-12T02:02:46;16.63;;;13.43;;
46355;SDS011;32066;49.474;11.106;2023-09-12T02:05:15;18.25;;;13.68;;
46355;SDS011;32066;49.474;11.106;2023-09-12T02:07:45;14.85;;;13.27;;
46355;SDS011;32066;49.474;11.106;2023-09-12T02:10:15;16.33;;;13.63;;
46355;SDS011;32066;49.474;11.106;2023-09-12T02:12:46;19.80;;;13.85;;
46355;SDS011;32066;49.474;11.106;2023-09-12T02:15:15;18.45;;;14.50;;
46355;SDS011;32066;49.474;11.106;2023-09-12T02:17:44;16.35;;;13.60;;
46355;SDS011;32066;49.474;11.106;2023-09-12T02:20:15;18.13;;;13.73;;
46355;SDS011;32066;49.474;11.106;2023-09-12T02:22:44;16.67;;;14.25;;
46355;SDS011;32066;49.474;11.106;2023-09-12T02:25:13;15.82;;;13.57;;
46355;SDS011;32066;49.474;11.106;2023-09-12T02:27:42;15.45;;;12.95;;
46355;SDS011;32066;49.474;11.106;2023-09-12T02:30:13;15.25;;;13.15;;
46355;SDS011;32066;49.474;11.106;2023-09-12T02:32:42;16.02;;;13.30;;
46355;SDS011;32066;49.474;11.106;2023-09-12T02:35:11;15.88;;;13.43;;
46355;SDS011;32066;49.474;11.106;2023-09-12T02:37:39;16.52;;;13.48;;
46355;SDS011;32066;49.474;11.106;2023-09-12T02:40:08;16.45;;;13.98;;
46355;SDS011;32066;49.474;11.106;2023-09-12T02:42:39;16.58;;;13.30;;
46355;SDS011;32066;49.474;11.106;2023-09-12T02:45:08;15.07;;;13.48;;
46355;SDS011;32066;49.474;11.106;2023-09-12T02:47:40;17.10;;;13.05;;
46355;SDS011;32066;49.474;11.106;2023-09-12T02:50:11;16.45;;;13.55;;
46355;SDS011;32066;49.474;11.106;2023-09-12T02:52:40;15.65;;;13.90;;
46355;SDS011;32066;49.474;11.106;2023-09-12T02:55:08;15.55;;;13.02;;
46355;SDS011;32066;49.474;11.106;2023-09-12T02:57:37;14.65;;;13.05;;
46355;SDS011;32066;49.474;11.106;2023-09-12T03:00:06;16.05;;;12.88;;
46355;SDS011;32066;49.474;11.106;2023-09-12T03:02:36;16.13;;;13.18;;
46355;SDS011;32066;49.474;11.106;2023-09-12T03:05:12;15.91;;;13.12;;
46355;SDS011;32066;49.474;11.106;2023-09-12T03:07:41;16.83;;;13.27;;
46355;SDS011;32066;49.474;11.106;2023-09-12T03:10:10;17.30;;;14.65;;
46355;SDS011;32066;49.474;11.106;2023-09-12T03:12:38;15.77;;;12.45;;
46355;SDS011;32066;49.474;11.106;2023-09-12T03:15:08;15.73;;;12.70;;
46355;SDS011;32066;49.474;11.106;2023-09-12T03:17:40;16.85;;;13.38;;
46355;SDS011;32066;49.474;11.106;2023-09-12T03:20:10;16.00;;;12.95;;
46355;SDS011;32066;49.474;11.106;2023-09-12T03:22:39;16.13;;;13.55;;
46355;SDS011;32066;49.474;11.106;2023-09-12T03:25:08;15.65;;;12.95;;
46355;SDS011;32066;49.474;11.106;2023-09-12T03:27:37;15.15;;;12.43;;
46355;SDS011;32066;49.474;11.106;2023-09-12T03:30:06;20.95;;;13.63;;
46355;SDS011;32066;49.474;11.106;2023-09-12T03:32:35;18.58;;;12.65;;
46355;SDS011;32066;49.474;11.106;2023-09-12T03:35:07;16.90;;;13.02;;
46355;SDS011;32066;49.474;11.106;2023-09-12T03:37:36;18.48;;;13.35;;
46355;SDS011;32066;49.474;11.106;2023-09-12T03:40:08;16.65;;;13.02;;
46355;SDS011;32066;49.474;11.106;2023-09-12T03:42:39;19.17;;;13.90;;
46355;SDS011;32066;49.474;11.106;2023-09-12T03:45:08;17.67;;;13.48;;
46355;SDS011;32066;49.474;11.106;2023-09-12T03:47:37;15.00;;;12.70;;
46355;SDS011;32066;49.474;11.106;2023-09-12T03:50:09;16.83;;;14.20;;
46355;SDS011;32066;49.474;11.106;2023-09-12T03:52:38;16.75;;;13.40;;
46355;SDS011;32066;49.474;11.106;2023-09-12T03:55:07;16.20;;;13.27;;
46355;SDS011;32066;49.474;11.106;2023-09-12T03:57:36;15.45;;;13.43;;
46355;SDS011;32066;49.474;11.106;2023-09-12T04:00:06;16.98;;;13.02;;
46355;SDS011;32066;49.474;11.106;2023-09-12T04:02:44;18.83;;;13.52;;
46355;SDS011;32066;49.474;11.106;2023-09-12T04:05:16;15.77;;;13.15;;
46355;SDS011;32066;49.474;11.106;2023-09-12T04:07:45;18.15;;;13.35;;
46355;SDS011;32066;49.474;11.106;2023-09-12T04:10:14;20.33;;;13.68;;
46355;SDS011;32066;49.474;11.106;2023-09-12T04:12:43;15.93;;;13.30;;
46355;SDS011;32066;49.474;11.106;2023-09-12T04:15:12;16.55;;;13.88;;
46355;SDS011;32066;49.474;11.106;2023-09-12T04:17:41;15.57;;;13.70;;
46355;SDS011;32066;49.474;11.106;2023-09-12T04:20:10;20.95;;;13.85;;
46355;SDS011;32066;49.474;11.106;2023-09-12T04:22:42;18.52;;;14.23;;
46355;SDS011;32066;49.474;11.106;2023-09-12T04:25:11;14.85;;;13.23;;
46355;SDS011;32066;49.474;11.106;2023-09-12T04:27:41;18.25;;;14.05;;
46355;SDS011;32066;49.474;11.106;2023-09-12T04:30:10;23.17;;;14.10;;
46355;SDS011;32066;49.474;11.106;2023-09-12T04:32:39;22.55;;;14.02;;
46355;SDS011;32066;49.474;11.106;2023-09-12T04:35:08;17.98;;;14.32;;
46355;SDS011;32066;49.474;11.106;2023-09-12T04:37:37;17.52;;;14.25;;
46355;SDS011;32066;49.474;11.106;2023-09-12T04:40:09;20.50;;;14.27;;
46355;SDS011;32066;49.474;11.106;2023-09-12T04:42:38;19.73;;;13.50;;
46355;SDS011;32066;49.474;11.106;2023-09-12T04:45:07;18.90;;;13.65;;
46355;SDS011;32066;49.474;11.106;2023-09-12T04:47:36;18.27;;;13.60;;
46355;SDS011;32066;49.474;11.106;2023-09-12T04:50:06;17.77;;;13.25;;
46355;SDS011;32066;49.474;11.106;2023-09-12T04:52:37;17.20;;;12.93;;
46355;SDS011;32066;49.474;11.106;2023-09-12T04:55:09;18.90;;;13.50;;
46355;SDS011;32066;49.474;11.106;2023-09-12T04:57:38;19.45;;;13.07;;
46355;SDS011;32066;49.474;11.106;2023-09-12T05:00:07;16.83;;;12.65;;
46355;SDS011;32066;49.474;11.106;2023-09-12T05:02:36;20.00;;;13.38;;
46355;SDS011;32066;49.474;11.106;2023-09-12T05:05:05;17.27;;;13.45;;
46355;SDS011;32066;49.474;11.106;2023-09-12T05:07:35;18.15;;;13.05;;
46355;SDS011;32066;49.474;11.106;2023-09-12T05:10:04;15.35;;;12.85;;
46355;SDS011;32066;49.474;11.106;2023-09-12T05:12:35;17.48;;;13.43;;
46355;SDS011;32066;49.474;11.106;2023-09-12T05:15:04;21.27;;;13.30;;
46355;SDS011;32066;49.474;11.106;2023-09-12T05:17:34;17.15;;;12.57;;
46355;SDS011;32066;49.474;11.106;2023-09-12T05:20:03;18.30;;;12.73;;
46355;SDS011;32066;49.474;11.106;2023-09-12T05:22:32;17.77;;;13.30;;
46355;SDS011;32066;49.474;11.106;2023-09-12T05:25:01;20.52;;;13.00;;
46355;SDS011;32066;49.474;11.106;2023-09-12T05:27:30;21.88;;;13.50;;
46355;SDS011;32066;49.474;11.106;2023-09-12T05:30:01;19.60;;;13.18;;
46355;SDS011;32066;49.474;11.106;2023-09-12T05:32:30;19.52;;;14.02;;
46355;SDS011;32066;49.474;11.106;2023-09-12T05:35:01;27.73;;;13.63;;
46355;SDS011;32066;49.474;11.106;2023-09-12T05:37:30;21.05;;;13.88;;
46355;SDS011;32066;49.474;11.106;2023-09-12T05:39:59;21.85;;;13.18;;
46355;SDS011;32066;49.474;11.106;2023-09-12T05:42:28;20.63;;;13.20;;
46355;SDS011;32066;49.474;11.106;2023-09-12T05:44:57;19.35;;;14.20;;
46355;SDS011;32066;49.474;11.106;2023-09-12T05:47:28;21.73;;;12.70;;
46355;SDS011;32066;49.474;11.106;2023-09-12T05:49:57;18.70;;;13.05;;
46355;SDS011;32066;49.474;11.106;2023-09-12T05:52:30;22.23;;;13.82;;
46355;SDS011;32066;49.474;11.106;2023-09-12T05:55:00;20.67;;;14.10;;
46355;SDS011;32066;49.474;11.106;2023-09-12T05:57:29;16.08;;;13.23;;
46355;SDS011;32066;49.474;11.106;2023-09-12T05:59:58;21.50;;;13.90;;
46355;SDS011;32066;49.474;11.106;2023-09-12T06:02:40;20.40;;;13.60;;
46355;SDS011;32066;49.474;11.106;2023-09-12T06:05:08;17.92;;;13.27;;
46355;SDS011;32066;49.474;11.106;2023-09-12T06:07:37;20.33;;;13.95;;
46355;SDS011;32066;49.474;11.106;2023-09-12T06:10:06;15.15;;;13.55;;
46355;SDS011;32066;49.474;11.106;2023-09-12T06:12:35;18.90;;;13.38;;
46355;SDS011;32066;49.474;11.106;2023-09-12T06:15:05;19.40;;;13.30;;
46355;SDS011;32066;49.474;11.106;2023-09-12T06:17:34;18.63;;;13.40;;
46355;SDS011;32066;49.474;11.106;2023-09-12T06:20:06;19.25;;;13.30;;
46355;SDS011;32066;49.474;11.106;2023-09-12T06:22:35;19.50;;;12.93;;
46355;SDS011;32066;49.474;11.106;2023-09-12T06:25:05;18.13;;;13.60;;
46355;SDS011;32066;49.474;11.106;2023-09-12T06:27:34;18.25;;;13.75;;
46355;SDS011;32066;49.474;11.106;2023-09-12T06:30:03;18.55;;;13.40;;
46355;SDS011;32066;49.474;11.106;2023-09-12T06:32:32;17.27;;;13.00;;
46355;SDS011;32066;49.474;11.106;2023-09-12T06:35:01;20.20;;;13.45;;
46355;SDS011;32066;49.474;11.106;2023-09-12T06:37:33;19.38;;;13.90;;
46355;SDS011;32066;49.474;11.106;2023-09-12T06:40:02;22.10;;;14.13;;
46355;SDS011;32066;49.474;11.106;2023-09-12T06:42:31;20.83;;;12.93;;
46355;SDS011;32066;49.474;11.106;2023-09-12T06:45:00;16.65;;;13.10;;
46355;SDS011;32066;49.474;11.106;2023-09-12T06:47:29;15.88;;;12.88;;
46355;SDS011;32066;49.474;11.106;2023-09-12T06:49:57;18.20;;;12.88;;
46355;SDS011;32066;49.474;11.106;2023-09-12T06:52:26;19.33;;;13.50;;
46355;SDS011;32066;49.474;11.106;2023-09-12T06:54:57;18.65;;;13.27;;
46355;SDS011;32066;49.474;11.106;2023-09-12T06:57:26;19.52;;;13.27;;
46355;SDS011;32066;49.474;11.106;2023-09-12T06:59:55;18.05;;;13.27;;
46355;SDS011;32066;49.474;11.106;2023-09-12T07:02:24;18.33;;;13.98;;
46355;SDS011;32066;49.474;11.106;2023-09-12T07:04:54;17.92;;;13.65;;
46355;SDS011;32066;49.474;11.106;2023-09-12T07:07:24;21.17;;;12.10;;
46355;SDS011;32066;49.474;11.106;2023-09-12T07:09:52;26.05;;;12.88;;
46355;SDS011;32066;49.474;11.106;2023-09-12T07:12:24;21.48;;;12.35;;
46355;SDS011;32066;49.474;11.106;2023-09-12T07:14:54;18.13;;;13.55;;
46355;SDS011;32066;49.474;11.106;2023-09-12T07:17:22;18.30;;;12.45;;
46355;SDS011;32066;49.474;11.106;2023-09-12T07:19:51;19.52;;;12.82;;
46355;SDS011;32066;49.474;11.106;2023-09-12T07:22:20;17.40;;;12.73;;
46355;SDS011;32066;49.474;11.106;2023-09-12T07:24:49;20.05;;;12.40;;
46355;SDS011;32066;49.474;11.106;2023-09-12T07:27:17;17.88;;;12.43;;
46355;SDS011;32066;49.474;11.106;2023-09-12T07:29:48;15.63;;;11.55;;
46355;SDS011;32066;49.474;11.106;2023-09-12T07:32:17;15.50;;;11.73;;
46355;SDS011;32066;49.474;11.106;2023-09-12T07:34:46;17.58;;;11.80;;
46355;SDS011;32066;49.474;11.106;2023-09-12T07:37:15;18.17;;;11.98;;
46355;SDS011;32066;49.474;11.106;2023-09-12T07:39:44;15.35;;;11.68;;
46355;SDS011;32066;49.474;11.106;2023-09-12T07:42:12;17.30;;;11.18;;
46355;SDS011;32066;49.474;11.106;2023-09-12T07:44:41;15.98;;;11.13;;
46355;SDS011;32066;49.474;11.106;2023-09-12T07:47:12;18.92;;;11.30;;
46355;SDS011;32066;49.474;11.106;2023-09-12T07:49:41;20.92;;;12.82;;
46355;SDS011;32066;49.474;11.106;2023-09-12T07:52:10;55.92;;;22.92;;
46355;SDS011;32066;49.474;11.106;2023-09-12T07:54:38;28.50;;;16.25;;
46355;SDS011;32066;49.474;11.106;2023-09-12T07:57:07;19.55;;;12.18;;
46355;SDS011;32066;49.474;11.106;2023-09-12T07:59:36;18.50;;;12.32;;
46355;SDS011;32066;49.474;11.106;2023-09-12T08:02:04;16.05;;;12.27;;
46355;SDS011;32066;49.474;11.106;2023-09-12T08:04:35;15.93;;;11.88;;
46355;SDS011;32066;49.474;11.106;2023-09-12T08:07:04;15.57;;;12.02;;
46355;SDS011;32066;49.474;11.106;2023-09-12T08:09:47;15.57;;;11.52;;
46355;SDS011;32066;49.474;11.106;2023-09-12T08:12:16;19.00;;;12.25;;
46355;SDS011;32066;49.474;11.106;2023-09-12T08:14:45;16.63;;;12.40;;
46355;SDS011;32066;49.474;11.106;2023-09-12T08:17:14;18.00;;;12.25;;
46355;SDS011;32066;49.474;11.106;2023-09-12T08:19:46;20.58;;;12.93;;
46355;SDS011;32066;49.474;11.106;2023-09-12T08:22:14;18.83;;;13.77;;
46355;SDS011;32066;49.474;11.106;2023-09-12T08:24:44;21.25;;;12.77;;
46355;SDS011;32066;49.474;11.106;2023-09-12T08:27:12;16.17;;;11.90;;
46355;SDS011;32066;49.474;11.106;2023-09-12T08:29:41;18.52;;;12.23;;
46355;SDS011;32066;49.474;11.106;2023-09-12T08:32:12;16.73;;;12.05;;
46355;SDS011;32066;49.474;11.106;2023-09-12T08:34:41;14.27;;;11.48;;
46355;SDS011;32066;49.474;11.106;2023-09-12T08:37:12;14.55;;;11.63;;
46355;SDS011;32066;49.474;11.106;2023-09-12T08:39:41;16.90;;;12.15;;
46355;SDS011;32066;49.474;11.106;2023-09-12T08:42:11;17.73;;;11.98;;
46355;SDS011;32066;49.474;11.106;2023-09-12T08:44:41;20.13;;;11.45;;
46355;SDS011;32066;49.474;11.106;2023-09-12T08:47:11;16.75;;;10.80;;
46355;SDS011;32066;49.474;11.106;2023-09-12T08:49:41;16.38;;;10.73;;
46355;SDS011;32066;49.474;11.106;2023-09-12T08:52:13;15.60;;;9.98;;
46355;SDS011;32066;49.474;11.106;2023-09-12T08:54:41;16.38;;;11.13;;
46355;SDS011;32066;49.474;11.106;2023-09-12T08:57:10;17.48;;;11.23;;
46355;SDS011;32066;49.474;11.106;2023-09-12T08:59:41;17.58;;;11.43;;
46355;SDS011;32066;49.474;11.106;2023-09-12T09:02:13;17.30;;;10.23;;
46355;SDS011;32066;49.474;11.106;2023-09-12T09:04:43;14.30;;;10.27;;
46355;SDS011;32066;49.474;11.106;2023-09-12T09:07:17;14.18;;;10.15;;
46355;SDS011;32066;49.474;11.106;2023-09-12T09:09:47;15.55;;;10.30;;
46355;SDS011;32066;49.474;11.106;2023-09-12T09:12:18;16.23;;;11.93;;
46355;SDS011;32066;49.474;11.106;2023-09-12T09:14:47;19.48;;;10.65;;
46355;SDS011;32066;49.474;11.106;2023-09-12T09:17:16;17.10;;;10.10;;
46355;SDS011;32066;49.474;11.106;2023-09-12T09:19:44;17.48;;;11.40;;
46355;SDS011;32066;49.474;11.106;2023-09-12T09:22:13;16.60;;;10.30;;
46355;SDS011;32066;49.474;11.106;2023-09-12T09:24:44;15.35;;;9.43;;
46355;SDS011;32066;49.474;11.106;2023-09-12T09:27:14;18.20;;;10.38;;
46355;SDS011;32066;49.474;11.106;2023-09-12T09:30:01;14.40;;;9.82;;
46355;SDS011;32066;49.474;11.106;2023-09-12T09:32:30;15.65;;;9.18;;
46355;SDS011;32066;49.474;11.106;2023-09-12T09:34:58;17.50;;;10.32;;
46355;SDS011;32066;49.474;11.106;2023-09-12T09:37:27;16.50;;;9.60;;
46355;SDS011;32066;49.474;11.106;2023-09-12T09:39:59;15.32;;;9.50;;
46355;SDS011;32066;49.474;11.106;2023-09-12T09:42:30;13.48;;;9.25;;
46355;SDS011;32066;49.474;11.106;2023-09-12T09:44:59;14.85;;;9.80;;
46355;SDS011;32066;49.474;11.106;2023-09-12T09:47:28;14.77;;;10.32;;
46355;SDS011;32066;49.474;11.106;2023-09-12T09:49:57;15.82;;;10.60;;
46355;SDS011;32066;49.474;11.106;2023-09-12T09:52:27;11.00;;;9.38;;
46355;SDS011;32066;49.474;11.106;2023-09-12T09:54:55;13.35;;;8.68;;
46355;SDS011;32066;49.474;11.106;2023-09-12T09:57:27;13.23;;;9.43;;
46355;SDS011;32066;49.474;11.106;2023-09-12T09:59:55;13.43;;;8.52;;
46355;SDS011;32066;49.474;11.106;2023-09-12T10:02:24;14.32;;;9.38;;
46355;SDS011;32066;49.474;11.106;2023-09-12T10:04:55;16.27;;;9.35;;
46355;SDS011;32066;49.474;11.106;2023-09-12T10:07:25;15.00;;;9.35;;
46355;SDS011;32066;49.474;11.106;2023-09-12T10:09:55;12.73;;;9.20;;
46355;SDS011;32066;49.474;11.106;2023-09-12T10:12:30;15.70;;;9.30;;
46355;SDS011;32066;49.474;11.106;2023-09-12T10:15:01;14.52;;;9.10;;
46355;SDS011;32066;49.474;11.106;2023-09-12T10:17:31;13.75;;;9.10;;
46355;SDS011;32066;49.474;11.106;2023-09-12T10:20:06;17.40;;;9.52;;
46355;SDS011;32066;49.474;11.106;2023-09-12T10:22:43;10.88;;;8.43;;
46355;SDS011;32066;49.474;11.106;2023-09-12T10:25:22;11.88;;;8.95;;
46355;SDS011;32066;49.474;11.106;2023-09-12T10:27:52;12.85;;;9.10;;
46355;SDS011;32066;49.474;11.106;2023-09-12T10:30:22;17.25;;;10.00;;
46355;SDS011;32066;49.474;11.106;2023-09-12T10:32:51;13.55;;;9.20;;
46355;SDS011;32066;49.474;11.106;2023-09-12T10:35:20;13.02;;;8.75;;
46355;SDS011;32066;49.474;11.106;2023-09-12T10:37:49;14.63;;;8.60;;
46355;SDS011;32066;49.474;11.106;2023-09-12T10:40:22;12.63;;;8.57;;
46355;SDS011;32066;49.474;11.106;2023-09-12T10:42:52;14.15;;;9.40;;
46355;SDS011;32066;49.474;11.106;2023-09-12T10:45:23;14.85;;;9.82;;
46355;SDS011;32066;49.474;11.106;2023-09-12T10:47:53;11.77;;;8.98;;
46355;SDS011;32066;49.474;11.106;2023-09-12T10:50:22;16.60;;;9.50;;
46355;SDS011;32066;49.474;11.106;2023-09-12T10:52:51;14.18;;;8.45;;
46355;SDS011;32066;49.474;11.106;2023-09-12T10:55:19;13.80;;;9.13;;
46355;SDS011;32066;49.474;11.106;2023-09-12T10:58:00;17.30;;;8.82;;
46355;SDS011;32066;49.474;11.106;2023-09-12T11:00:30;12.77;;;8.95;;
46355;SDS011;32066;49.474;11.106;2023-09-12T11:06:00;15.57;;;9.48;;
46355;SDS011;32066;49.474;11.106;2023-09-12T11:08:35;14.13;;;9.60;;
46355;SDS011;32066;49.474;11.106;2023-09-12T11:11:21;16.98;;;9.57;;
46355;SDS011;32066;49.474;11.106;2023-09-12T11:14:02;14.45;;;9.27;;
46355;SDS011;32066;49.474;11.106;2023-09-12T11:16:31;15.50;;;9.63;;
46355;SDS011;32066;49.474;11.106;2023-09-12T11:21:45;12.70;;;9.30;;
46355;SDS011;32066;49.474;11.106;2023-09-12T11:24:15;16.35;;;9.20;;
46355;SDS011;32066;49.474;11.106;2023-09-12T11:26:58;14.43;;;8.75;;
46355;SDS011;32066;49.474;11.106;2023-09-12T11:29:28;14.48;;;9.40;;
46355;SDS011;32066;49.474;11.106;2023-09-12T11:31:58;18.77;;;9.13;;
46355;SDS011;32066;49.474;11.106;2023-09-12T11:34:29;13.63;;;8.77;;
46355;SDS011;32066;49.474;11.106;2023-09-12T11:37:03;18.02;;;9.75;;
46355;SDS011;32066;49.474;11.106;2023-09-12T11:39:33;18.83;;;9.38;;
46355;SDS011;32066;49.474;11.106;2023-09-12T11:42:07;15.35;;;9.32;;
46355;SDS011;32066;49.474;11.106;2023-09-12T11:44:39;13.82;;;8.75;;
46355;SDS011;32066;49.474;11.106;2023-09-12T11:47:09;17.52;;;8.60;;
46355;SDS011;32066;49.474;11.106;2023-09-12T11:49:39;12.45;;;8.35;;
46355;SDS011;32066;49.474;11.106;2023-09-12T11:52:09;13.63;;;9.43;;
46355;SDS011;32066;49.474;11.106;2023-09-12T11:54:39;15.48;;;8.80;;
46355;SDS011;32066;49.474;11.106;2023-09-12T11:57:11;15.25;;;9.00;;
46355;SDS011;32066;49.474;11.106;2023-09-12T11:59:42;13.77;;;8.32;;
46355;SDS011;32066;49.474;11.106;2023-09-12T12:02:14;12.88;;;8.65;;
46355;SDS011;32066;49.474;11.106;2023-09-12T12:04:43;17.88;;;9.48;;
46355;SDS011;32066;49.474;11.106;2023-09-12T12:07:12;16.15;;;9.02;;
46355;SDS011;32066;49.474;11.106;2023-09-12T12:09:41;15.00;;;8.75;;
46355;SDS011;32066;49.474;11.106;2023-09-12T12:12:14;14.73;;;8.60;;
46355;SDS011;32066;49.474;11.106;2023-09-12T12:14:43;16.10;;;9.07;;
46355;SDS011;32066;49.474;11.106;2023-09-12T12:17:12;13.65;;;8.93;;
46355;SDS011;32066;49.474;11.106;2023-09-12T12:19:44;15.15;;;8.63;;
46355;SDS011;32066;49.474;11.106;2023-09-12T12:22:16;14.30;;;9.13;;
46355;SDS011;32066;49.474;11.106;2023-09-12T12:24:45;12.23;;;8.57;;
46355;SDS011;32066;49.474;11.106;2023-09-12T12:27:19;13.27;;;8.23;;
46355;SDS011;32066;49.474;11.106;2023-09-12T12:29:50;16.60;;;9.57;;
46355;SDS011;32066;49.474;11.106;2023-09-12T12:32:27;15.60;;;9.60;;
46355;SDS011;32066;49.474;11.106;2023-09-12T12:35:00;14.30;;;8.15;;
46355;SDS011;32066;49.474;11.106;2023-09-12T12:37:32;17.13;;;8.82;;
46355;SDS011;32066;49.474;11.106;2023-09-12T12:40:01;13.65;;;8.73;;
46355;SDS011;32066;49.474;11.106;2023-09-12T12:42:38;16.90;;;9.18;;
46355;SDS011;32066;49.474;11.106;2023-09-12T12:45:10;13.52;;;8.10;;
46355;SDS011;32066;49.474;11.106;2023-09-12T12:47:40;15.23;;;8.55;;
46355;SDS011;32066;49.474;11.106;2023-09-12T12:50:10;16.52;;;8.48;;
46355;SDS011;32066;49.474;11.106;2023-09-12T12:52:39;20.40;;;8.40;;
46355;SDS011;32066;49.474;11.106;2023-09-12T12:55:09;12.05;;;7.78;;
46355;SDS011;32066;49.474;11.106;2023-09-12T12:57:42;14.90;;;8.10;;
46355;SDS011;32066;49.474;11.106;2023-09-12T13:00:12;13.73;;;8.68;;
46355;SDS011;32066;49.474;11.106;2023-09-12T13:02:43;16.58;;;8.27;;
46355;SDS011;32066;49.474;11.106;2023-09-12T13:05:24;15.10;;;8.40;;
46355;SDS011;32066;49.474;11.106;2023-09-12T13:07:54;12.38;;;8.70;;
46355;SDS011;32066;49.474;11.106;2023-09-12T13:10:22;13.35;;;8.43;;
46355;SDS011;32066;49.474;11.106;2023-09-12T13:12:55;14.07;;;9.02;;
46355;SDS011;32066;49.474;11.106;2023-09-12T13:15:23;16.92;;;8.68;;
46355;SDS011;32066;49.474;11.106;2023-09-12T13:17:52;13.77;;;8.90;;
46355;SDS011;32066;49.474;11.106;2023-09-12T13:20:21;14.90;;;9.35;;
46355;SDS011;32066;49.474;11.106;2023-09-12T13:22:50;13.43;;;8.20;;
46355;SDS011;32066;49.474;11.106;2023-09-12T13:25:18;13.55;;;8.77;;
46355;SDS011;32066;49.474;11.106;2023-09-12T13:27:48;16.92;;;8.15;;
46355;SDS011;32066;49.474;11.106;2023-09-12T13:30:20;11.43;;;7.90;;
46355;SDS011;32066;49.474;11.106;2023-09-12T13:32:48;14.45;;;7.90;;
46355;SDS011;32066;49.474;11.106;2023-09-12T13:35:17;13.10;;;7.78;;
46355;SDS011;32066;49.474;11.106;2023-09-12T13:37:46;17.42;;;8.07;;
46355;SDS011;32066;49.474;11.106;2023-09-12T13:40:14;13.52;;;8.05;;
46355;SDS011;32066;49.474;11.106;2023-09-12T13:42:43;11.23;;;8.27;;
46355;SDS011;32066;49.474;11.106;2023-09-12T13:45:12;14.48;;;8.93;;
46355;SDS011;32066;49.474;11.106;2023-09-12T13:47:43;11.68;;;7.80;;
46355;SDS011;32066;49.474;11.106;2023-09-12T13:50:12;15.10;;;8.32;;
46355;SDS011;32066;49.474;11.106;2023-09-12T13:52:40;12.85;;;7.97;;
46355;SDS011;32066;49.474;11.106;2023-09-12T13:55:09;13.20;;;7.75;;
46355;SDS011;32066;49.474;11.106;2023-09-12T13:57:41;12.30;;;7.35;;
46355;SDS011;32066;49.474;11.106;2023-09-12T14:00:10;13.48;;;7.30;;
46355;SDS011;32066;49.474;11.106;2023-09-12T14:02:39;13.73;;;8.05;;
46355;SDS011;32066;49.474;11.106;2023-09-12T14:05:11;10.75;;;7.65;;
46355;SDS011;32066;49.474;11.106;2023-09-12T14:07:40;18.13;;;7.70;;
46355;SDS011;32066;49.474;11.106;2023-09-12T14:10:09;11.77;;;7.85;;
46355;SDS011;32066;49.474;11.106;2023-09-12T14:12:38;11.32;;;7.22;;
46355;SDS011;32066;49.474;11.106;2023-09-12T14:15:07;9.38;;;6.50;;
46355;SDS011;32066;49.474;11.106;2023-09-12T14:17:37;13.27;;;7.00;;
46355;SDS011;32066;49.474;11.106;2023-09-12T14:20:06;8.65;;;7.20;;
46355;SDS011;32066;49.474;11.106;2023-09-12T14:22:38;12.90;;;7.30;;
46355;SDS011;32066;49.474;11.106;2023-09-12T14:25:07;10.77;;;6.57;;
46355;SDS011;32066;49.474;11.106;2023-09-12T14:27:39;14.20;;;7.05;;
46355;SDS011;32066;49.474;11.106;2023-09-12T14:30:11;10.52;;;6.72;;
46355;SDS011;32066;49.474;11.106;2023-09-12T14:32:41;10.15;;;6.13;;
46355;SDS011;32066;49.474;11.106;2023-09-12T14:35:09;10.75;;;6.47;;
46355;SDS011;32066;49.474;11.106;2023-09-12T14:37:41;11.40;;;7.22;;
46355;SDS011;32066;49.474;11.106;2023-09-12T14:40:10;9.98;;;7.50;;